sensor_id;sensor_type;location;lat;lon;timestamp;temperature;humidity
4578;DHT22;2301;47.354;8.528;2023-11-22T00:01:18;15.60;86.30
4578;DHT22;2301;47.354;8.528;2023-11-22T00:03:45;15.60;85.10
4578;DHT22;2301;47.354;8.528;2023-11-22T00:06:12;15.60;84.40
4578;DHT22;2301;47.354;8.528;2023-11-22T00:08:39;15.50;84.10
4578;DHT22;2301;47.354;8.528;2023-11-22T00:11:06;15.50;85.00
4578;DHT22;2301;47.354;8.528;2023-11-22T00:13:33;15.60;85.20
4578;DHT22;2301;47.354;8.528;2023-11-22T00:16:00;15.60;84.70
4578;DHT22;2301;47.354;8.528;2023-11-22T00:18:28;15.60;84.60
4578;DHT22;2301;47.354;8.528;2023-11-22T00:20:56;15.60;84.20
4578;DHT22;2301;47.354;8.528;2023-11-22T00:23:25;15.60;83.80
4578;DHT22;2301;47.354;8.528;2023-11-22T00:25:54;15.50;82.90
4578;DHT22;2301;47.354;8.528;2023-11-22T00:28:23;15.50;83.80
4578;DHT22;2301;47.354;8.528;2023-11-22T00:30:50;15.50;84.10
4578;DHT22;2301;47.354;8.528;2023-11-22T00:33:17;15.50;83.80
4578;DHT22;2301;47.354;8.528;2023-11-22T00:35:46;15.50;83.40
4578;DHT22;2301;47.354;8.528;2023-11-22T00:38:13;15.50;83.30
4578;DHT22;2301;47.354;8.528;2023-11-22T00:40:40;15.50;83.40
4578;DHT22;2301;47.354;8.528;2023-11-22T00:43:07;15.50;83.40
4578;DHT22;2301;47.354;8.528;2023-11-22T00:45:35;15.50;83.00
4578;DHT22;2301;47.354;8.528;2023-11-22T00:48:02;15.50;83.60
4578;DHT22;2301;47.354;8.528;2023-11-22T00:50:29;15.50;83.40
4578;DHT22;2301;47.354;8.528;2023-11-22T00:52:57;15.50;83.50
4578;DHT22;2301;47.354;8.528;2023-11-22T00:55:24;15.50;83.10
4578;DHT22;2301;47.354;8.528;2023-11-22T00:57:52;15.60;83.40
4578;DHT22;2301;47.354;8.528;2023-11-22T01:00:19;15.50;83.20
4578;DHT22;2301;47.354;8.528;2023-11-22T01:02:46;15.60;83.40
4578;DHT22;2301;47.354;8.528;2023-11-22T01:05:13;15.60;83.30
4578;DHT22;2301;47.354;8.528;2023-11-22T01:07:41;15.60;82.90
4578;DHT22;2301;47.354;8.528;2023-11-22T01:10:10;15.60;82.30
4578;DHT22;2301;47.354;8.528;2023-11-22T01:12:37;15.60;82.20
4578;DHT22;2301;47.354;8.528;2023-11-22T01:15:05;15.70;82.90
4578;DHT22;2301;47.354;8.528;2023-11-22T01:17:32;15.70;82.50
4578;DHT22;2301;47.354;8.528;2023-11-22T01:19:59;15.70;82.10
4578;DHT22;2301;47.354;8.528;2023-11-22T01:22:26;15.70;82.40
4578;DHT22;2301;47.354;8.528;2023-11-22T01:24:54;15.70;82.30
4578;DHT22;2301;47.354;8.528;2023-11-22T01:27:22;15.70;82.10
4578;DHT22;2301;47.354;8.528;2023-11-22T01:29:50;15.60;81.90
4578;DHT22;2301;47.354;8.528;2023-11-22T01:32:19;15.60;82.00
4578;DHT22;2301;47.354;8.528;2023-11-22T01:34:46;15.70;82.20
4578;DHT22;2301;47.354;8.528;2023-11-22T01:37:13;15.70;81.90
4578;DHT22;2301;47.354;8.528;2023-11-22T01:39:40;15.70;81.60
4578;DHT22;2301;47.354;8.528;2023-11-22T01:42:07;15.70;81.30
4578;DHT22;2301;47.354;8.528;2023-11-22T01:44:36;15.60;81.20
4578;DHT22;2301;47.354;8.528;2023-11-22T01:47:05;15.60;80.80
4578;DHT22;2301;47.354;8.528;2023-11-22T01:49:32;15.50;80.40
4578;DHT22;2301;47.354;8.528;2023-11-22T01:51:59;15.50;81.20
4578;DHT22;2301;47.354;8.528;2023-11-22T01:54:28;15.50;81.50
4578;DHT22;2301;47.354;8.528;2023-11-22T01:56:55;15.50;81.50
4578;DHT22;2301;47.354;8.528;2023-11-22T01:59:22;15.50;81.50
4578;DHT22;2301;47.354;8.528;2023-11-22T02:01:53;15.60;81.00
4578;DHT22;2301;47.354;8.528;2023-11-22T02:04:20;15.60;81.30
4578;DHT22;2301;47.354;8.528;2023-11-22T02:06:48;15.60;80.90
4578;DHT22;2301;47.354;8.528;2023-11-22T02:09:16;15.60;81.00
4578;DHT22;2301;47.354;8.528;2023-11-22T02:11:44;15.50;80.70
4578;DHT22;2301;47.354;8.528;2023-11-22T02:14:13;15.50;80.70
4578;DHT22;2301;47.354;8.528;2023-11-22T02:16:40;15.60;81.50
4578;DHT22;2301;47.354;8.528;2023-11-22T02:19:14;15.60;81.00
4578;DHT22;2301;47.354;8.528;2023-11-22T02:21:41;15.60;80.90
4578;DHT22;2301;47.354;8.528;2023-11-22T02:24:10;15.50;80.30
4578;DHT22;2301;47.354;8.528;2023-11-22T02:26:37;15.50;80.20
4578;DHT22;2301;47.354;8.528;2023-11-22T02:29:04;15.60;80.50
4578;DHT22;2301;47.354;8.528;2023-11-22T02:31:32;15.50;80.60
4578;DHT22;2301;47.354;8.528;2023-11-22T02:34:00;15.60;80.70
4578;DHT22;2301;47.354;8.528;2023-11-22T02:36:27;15.50;80.20
4578;DHT22;2301;47.354;8.528;2023-11-22T02:38:54;15.60;80.40
4578;DHT22;2301;47.354;8.528;2023-11-22T02:41:23;15.50;79.60
4578;DHT22;2301;47.354;8.528;2023-11-22T02:43:50;15.40;79.80
4578;DHT22;2301;47.354;8.528;2023-11-22T02:46:17;15.40;79.60
4578;DHT22;2301;47.354;8.528;2023-11-22T02:48:44;15.40;80.00
4578;DHT22;2301;47.354;8.528;2023-11-22T02:51:11;15.40;80.10
4578;DHT22;2301;47.354;8.528;2023-11-22T02:53:39;15.40;80.40
4578;DHT22;2301;47.354;8.528;2023-11-22T02:56:09;15.30;80.20
4578;DHT22;2301;47.354;8.528;2023-11-22T02:58:37;15.40;80.70
4578;DHT22;2301;47.354;8.528;2023-11-22T03:01:04;15.40;80.70
4578;DHT22;2301;47.354;8.528;2023-11-22T03:03:33;15.40;80.90
4578;DHT22;2301;47.354;8.528;2023-11-22T03:06:00;15.40;80.80
4578;DHT22;2301;47.354;8.528;2023-11-22T03:08:27;15.50;80.60
4578;DHT22;2301;47.354;8.528;2023-11-22T03:10:54;15.40;79.70
4578;DHT22;2301;47.354;8.528;2023-11-22T03:13:20;15.40;80.00
4578;DHT22;2301;47.354;8.528;2023-11-22T03:15:49;15.30;80.00
4578;DHT22;2301;47.354;8.528;2023-11-22T03:18:16;15.30;80.70
4578;DHT22;2301;47.354;8.528;2023-11-22T03:20:43;15.30;80.80
4578;DHT22;2301;47.354;8.528;2023-11-22T03:23:10;15.30;80.50
4578;DHT22;2301;47.354;8.528;2023-11-22T03:25:37;15.30;80.80
4578;DHT22;2301;47.354;8.528;2023-11-22T03:28:04;15.30;80.50
4578;DHT22;2301;47.354;8.528;2023-11-22T03:30:31;15.40;80.70
4578;DHT22;2301;47.354;8.528;2023-11-22T03:33:00;15.40;80.60
4578;DHT22;2301;47.354;8.528;2023-11-22T03:35:27;15.40;80.50
4578;DHT22;2301;47.354;8.528;2023-11-22T03:37:54;15.40;80.70
4578;DHT22;2301;47.354;8.528;2023-11-22T03:40:21;15.50;80.60
4578;DHT22;2301;47.354;8.528;2023-11-22T03:42:48;15.50;79.70
4578;DHT22;2301;47.354;8.528;2023-11-22T03:45:15;15.40;80.20
4578;DHT22;2301;47.354;8.528;2023-11-22T03:47:43;15.40;80.50
4578;DHT22;2301;47.354;8.528;2023-11-22T03:50:11;15.50;80.30
4578;DHT22;2301;47.354;8.528;2023-11-22T03:52:40;15.50;80.10
4578;DHT22;2301;47.354;8.528;2023-11-22T03:55:08;15.40;79.60
4578;DHT22;2301;47.354;8.528;2023-11-22T03:57:35;15.40;79.80
4578;DHT22;2301;47.354;8.528;2023-11-22T04:00:03;15.50;80.00
4578;DHT22;2301;47.354;8.528;2023-11-22T04:02:32;15.50;80.10
4578;DHT22;2301;47.354;8.528;2023-11-22T04:04:59;15.50;80.20
4578;DHT22;2301;47.354;8.528;2023-11-22T04:07:27;15.60;79.70
4578;DHT22;2301;47.354;8.528;2023-11-22T04:09:54;15.60;79.80
4578;DHT22;2301;47.354;8.528;2023-11-22T04:12:21;15.60;79.50
4578;DHT22;2301;47.354;8.528;2023-11-22T04:14:49;15.50;79.20
4578;DHT22;2301;47.354;8.528;2023-11-22T04:17:17;15.50;79.20
4578;DHT22;2301;47.354;8.528;2023-11-22T04:19:44;15.50;79.50
4578;DHT22;2301;47.354;8.528;2023-11-22T04:22:11;15.50;79.70
4578;DHT22;2301;47.354;8.528;2023-11-22T04:24:39;15.50;79.30
4578;DHT22;2301;47.354;8.528;2023-11-22T04:27:06;15.50;79.30
4578;DHT22;2301;47.354;8.528;2023-11-22T04:29:33;15.60;79.40
4578;DHT22;2301;47.354;8.528;2023-11-22T04:32:00;15.60;79.40
4578;DHT22;2301;47.354;8.528;2023-11-22T04:34:28;15.60;79.20
4578;DHT22;2301;47.354;8.528;2023-11-22T04:36:55;15.50;78.60
4578;DHT22;2301;47.354;8.528;2023-11-22T04:39:22;15.50;78.90
4578;DHT22;2301;47.354;8.528;2023-11-22T04:41:50;15.50;79.10
4578;DHT22;2301;47.354;8.528;2023-11-22T04:44:17;15.50;79.20
4578;DHT22;2301;47.354;8.528;2023-11-22T04:46:44;15.50;79.40
4578;DHT22;2301;47.354;8.528;2023-11-22T04:49:11;15.50;79.20
4578;DHT22;2301;47.354;8.528;2023-11-22T04:51:39;15.50;79.20
4578;DHT22;2301;47.354;8.528;2023-11-22T04:54:07;15.40;79.00
4578;DHT22;2301;47.354;8.528;2023-11-22T04:56:34;15.40;79.40
4578;DHT22;2301;47.354;8.528;2023-11-22T04:59:02;15.40;79.60
4578;DHT22;2301;47.354;8.528;2023-11-22T05:01:31;15.40;79.40
4578;DHT22;2301;47.354;8.528;2023-11-22T05:03:59;15.40;79.00
4578;DHT22;2301;47.354;8.528;2023-11-22T05:06:26;15.40;79.20
4578;DHT22;2301;47.354;8.528;2023-11-22T05:08:54;15.40;78.90
4578;DHT22;2301;47.354;8.528;2023-11-22T05:11:21;15.40;79.10
4578;DHT22;2301;47.354;8.528;2023-11-22T05:13:48;15.30;79.10
4578;DHT22;2301;47.354;8.528;2023-11-22T05:16:18;15.30;79.20
4578;DHT22;2301;47.354;8.528;2023-11-22T05:18:46;15.30;79.20
4578;DHT22;2301;47.354;8.528;2023-11-22T05:21:13;15.30;79.20
4578;DHT22;2301;47.354;8.528;2023-11-22T05:23:39;15.30;79.10
4578;DHT22;2301;47.354;8.528;2023-11-22T05:26:06;15.30;79.50
4578;DHT22;2301;47.354;8.528;2023-11-22T05:28:34;15.30;79.70
4578;DHT22;2301;47.354;8.528;2023-11-22T05:31:01;15.40;79.50
4578;DHT22;2301;47.354;8.528;2023-11-22T05:33:29;15.40;79.40
4578;DHT22;2301;47.354;8.528;2023-11-22T05:35:57;15.30;79.10
4578;DHT22;2301;47.354;8.528;2023-11-22T05:38:24;15.20;78.40
4578;DHT22;2301;47.354;8.528;2023-11-22T05:40:52;15.20;79.00
4578;DHT22;2301;47.354;8.528;2023-11-22T05:43:19;15.20;79.30
4578;DHT22;2301;47.354;8.528;2023-11-22T05:45:51;15.20;79.60
4578;DHT22;2301;47.354;8.528;2023-11-22T05:48:18;15.20;79.60
4578;DHT22;2301;47.354;8.528;2023-11-22T05:50:47;15.20;79.60
4578;DHT22;2301;47.354;8.528;2023-11-22T05:53:14;15.20;79.30
4578;DHT22;2301;47.354;8.528;2023-11-22T05:55:45;15.20;79.20
4578;DHT22;2301;47.354;8.528;2023-11-22T05:58:13;15.20;78.70
4578;DHT22;2301;47.354;8.528;2023-11-22T06:00:42;15.10;79.00
4578;DHT22;2301;47.354;8.528;2023-11-22T06:03:09;15.10;79.50
4578;DHT22;2301;47.354;8.528;2023-11-22T06:05:36;15.10;79.30
4578;DHT22;2301;47.354;8.528;2023-11-22T06:08:05;15.20;79.70
4578;DHT22;2301;47.354;8.528;2023-11-22T06:10:32;15.20;79.70
4578;DHT22;2301;47.354;8.528;2023-11-22T06:12:59;15.20;79.50
4578;DHT22;2301;47.354;8.528;2023-11-22T06:15:26;15.20;79.30
4578;DHT22;2301;47.354;8.528;2023-11-22T06:17:53;15.20;79.30
4578;DHT22;2301;47.354;8.528;2023-11-22T06:20:20;15.30;79.70
4578;DHT22;2301;47.354;8.528;2023-11-22T06:22:49;15.30;79.30
4578;DHT22;2301;47.354;8.528;2023-11-22T06:25:18;15.30;78.90
4578;DHT22;2301;47.354;8.528;2023-11-22T06:27:45;15.20;78.70
4578;DHT22;2301;47.354;8.528;2023-11-22T06:30:12;15.20;78.90
4578;DHT22;2301;47.354;8.528;2023-11-22T06:32:40;15.20;79.40
4578;DHT22;2301;47.354;8.528;2023-11-22T06:35:09;15.20;79.40
4578;DHT22;2301;47.354;8.528;2023-11-22T06:37:37;15.30;79.40
4578;DHT22;2301;47.354;8.528;2023-11-22T06:40:05;15.20;78.70
4578;DHT22;2301;47.354;8.528;2023-11-22T06:42:33;15.20;78.80
4578;DHT22;2301;47.354;8.528;2023-11-22T06:45:00;15.20;79.20
4578;DHT22;2301;47.354;8.528;2023-11-22T06:47:27;15.20;79.00
4578;DHT22;2301;47.354;8.528;2023-11-22T06:49:54;15.20;79.00
4578;DHT22;2301;47.354;8.528;2023-11-22T06:52:21;15.20;79.20
4578;DHT22;2301;47.354;8.528;2023-11-22T06:54:48;15.20;78.00
4578;DHT22;2301;47.354;8.528;2023-11-22T06:57:15;15.20;78.90
4578;DHT22;2301;47.354;8.528;2023-11-22T06:59:43;15.20;79.00
4578;DHT22;2301;47.354;8.528;2023-11-22T07:02:10;15.20;79.30
4578;DHT22;2301;47.354;8.528;2023-11-22T07:04:37;15.20;79.00
4578;DHT22;2301;47.354;8.528;2023-11-22T07:07:05;15.20;78.60
4578;DHT22;2301;47.354;8.528;2023-11-22T07:09:36;15.20;78.70
4578;DHT22;2301;47.354;8.528;2023-11-22T07:12:05;15.20;78.50
4578;DHT22;2301;47.354;8.528;2023-11-22T07:14:33;15.20;79.20
4578;DHT22;2301;47.354;8.528;2023-11-22T07:17:01;15.30;79.90
4578;DHT22;2301;47.354;8.528;2023-11-22T07:19:28;15.40;79.80
4578;DHT22;2301;47.354;8.528;2023-11-22T07:21:55;15.40;77.90
4578;DHT22;2301;47.354;8.528;2023-11-22T07:24:23;15.30;76.80
4578;DHT22;2301;47.354;8.528;2023-11-22T07:26:50;15.20;77.60
4578;DHT22;2301;47.354;8.528;2023-11-22T07:29:19;15.40;80.10
4578;DHT22;2301;47.354;8.528;2023-11-22T07:31:46;15.60;79.30
4578;DHT22;2301;47.354;8.528;2023-11-22T07:34:15;15.80;78.90
4578;DHT22;2301;47.354;8.528;2023-11-22T07:36:44;16.00;77.60
4578;DHT22;2301;47.354;8.528;2023-11-22T07:39:13;16.20;77.00
4578;DHT22;2301;47.354;8.528;2023-11-22T07:41:40;16.30;75.90
4578;DHT22;2301;47.354;8.528;2023-11-22T07:44:07;16.40;76.00
4578;DHT22;2301;47.354;8.528;2023-11-22T07:46:34;16.20;70.80
4578;DHT22;2301;47.354;8.528;2023-11-22T07:49:03;15.80;67.50
4578;DHT22;2301;47.354;8.528;2023-11-22T07:51:31;15.30;66.10
4578;DHT22;2301;47.354;8.528;2023-11-22T07:53:58;14.70;65.40
4578;DHT22;2301;47.354;8.528;2023-11-22T07:56:25;14.30;66.50
4578;DHT22;2301;47.354;8.528;2023-11-22T07:58:52;14.00;67.20
4578;DHT22;2301;47.354;8.528;2023-11-22T08:01:19;13.70;67.80
4578;DHT22;2301;47.354;8.528;2023-11-22T08:03:46;13.40;67.80
4578;DHT22;2301;47.354;8.528;2023-11-22T08:06:13;13.10;67.90
4578;DHT22;2301;47.354;8.528;2023-11-22T08:08:42;12.90;68.40
4578;DHT22;2301;47.354;8.528;2023-11-22T08:11:11;12.70;68.80
4578;DHT22;2301;47.354;8.528;2023-11-22T08:13:40;12.50;69.20
4578;DHT22;2301;47.354;8.528;2023-11-22T08:16:08;12.40;69.70
4578;DHT22;2301;47.354;8.528;2023-11-22T08:18:35;12.20;70.20
4578;DHT22;2301;47.354;8.528;2023-11-22T08:21:03;12.00;70.50
4578;DHT22;2301;47.354;8.528;2023-11-22T08:23:30;11.80;70.50
4578;DHT22;2301;47.354;8.528;2023-11-22T08:26:00;11.70;71.10
4578;DHT22;2301;47.354;8.528;2023-11-22T08:28:29;11.50;71.40
4578;DHT22;2301;47.354;8.528;2023-11-22T08:30:56;11.50;71.40
4578;DHT22;2301;47.354;8.528;2023-11-22T08:33:22;11.20;71.30
4578;DHT22;2301;47.354;8.528;2023-11-22T08:35:49;11.10;71.50
4578;DHT22;2301;47.354;8.528;2023-11-22T08:38:23;11.00;71.80
4578;DHT22;2301;47.354;8.528;2023-11-22T08:40:50;10.80;71.80
4578;DHT22;2301;47.354;8.528;2023-11-22T08:43:19;10.70;72.10
4578;DHT22;2301;47.354;8.528;2023-11-22T08:45:48;10.70;72.80
4578;DHT22;2301;47.354;8.528;2023-11-22T08:48:15;10.60;72.90
4578;DHT22;2301;47.354;8.528;2023-11-22T08:50:43;10.60;73.40
4578;DHT22;2301;47.354;8.528;2023-11-22T08:53:10;10.50;73.10
4578;DHT22;2301;47.354;8.528;2023-11-22T08:55:39;10.40;73.20
4578;DHT22;2301;47.354;8.528;2023-11-22T08:58:05;10.40;73.20
4578;DHT22;2301;47.354;8.528;2023-11-22T09:00:35;10.40;73.70
4578;DHT22;2301;47.354;8.528;2023-11-22T09:03:02;11.10;91.60
4578;DHT22;2301;47.354;8.528;2023-11-22T09:05:29;12.30;93.90
4578;DHT22;2301;47.354;8.528;2023-11-22T09:07:56;13.40;95.90
4578;DHT22;2301;47.354;8.528;2023-11-22T09:10:24;14.30;98.40
4578;DHT22;2301;47.354;8.528;2023-11-22T09:12:52;15.20;96.60
4578;DHT22;2301;47.354;8.528;2023-11-22T09:15:19;15.70;93.00
4578;DHT22;2301;47.354;8.528;2023-11-22T09:17:53;16.20;89.60
4578;DHT22;2301;47.354;8.528;2023-11-22T09:20:20;16.70;83.90
4578;DHT22;2301;47.354;8.528;2023-11-22T09:22:50;17.00;80.30
4578;DHT22;2301;47.354;8.528;2023-11-22T09:25:19;17.30;76.90
4578;DHT22;2301;47.354;8.528;2023-11-22T09:27:47;17.60;74.30
4578;DHT22;2301;47.354;8.528;2023-11-22T09:30:19;17.50;67.30
4578;DHT22;2301;47.354;8.528;2023-11-22T09:32:59;16.70;61.20
4578;DHT22;2301;47.354;8.528;2023-11-22T09:35:26;15.80;58.80
4578;DHT22;2301;47.354;8.528;2023-11-22T09:37:55;15.10;58.80
4578;DHT22;2301;47.354;8.528;2023-11-22T09:40:22;14.40;59.00
4578;DHT22;2301;47.354;8.528;2023-11-22T09:42:49;13.90;59.40
4578;DHT22;2301;47.354;8.528;2023-11-22T09:45:20;13.50;60.00
4578;DHT22;2301;47.354;8.528;2023-11-22T09:47:48;13.20;61.00
4578;DHT22;2301;47.354;8.528;2023-11-22T09:50:19;12.90;61.40
4578;DHT22;2301;47.354;8.528;2023-11-22T09:52:50;12.60;62.00
4578;DHT22;2301;47.354;8.528;2023-11-22T09:55:20;12.30;62.40
4578;DHT22;2301;47.354;8.528;2023-11-22T09:57:49;12.00;62.80
4578;DHT22;2301;47.354;8.528;2023-11-22T10:00:17;11.80;63.00
4578;DHT22;2301;47.354;8.528;2023-11-22T10:02:45;11.60;63.90
4578;DHT22;2301;47.354;8.528;2023-11-22T10:05:12;11.50;64.50
4578;DHT22;2301;47.354;8.528;2023-11-22T10:07:41;11.30;64.90
4578;DHT22;2301;47.354;8.528;2023-11-22T10:10:08;11.20;65.10
4578;DHT22;2301;47.354;8.528;2023-11-22T10:12:36;11.10;65.50
4578;DHT22;2301;47.354;8.528;2023-11-22T10:15:16;11.00;66.20
4578;DHT22;2301;47.354;8.528;2023-11-22T10:17:49;10.80;66.00
4578;DHT22;2301;47.354;8.528;2023-11-22T10:20:22;10.70;66.20
4578;DHT22;2301;47.354;8.528;2023-11-22T10:22:50;10.60;66.60
4578;DHT22;2301;47.354;8.528;2023-11-22T10:25:17;10.50;67.00
4578;DHT22;2301;47.354;8.528;2023-11-22T10:27:45;10.50;67.30
4578;DHT22;2301;47.354;8.528;2023-11-22T10:30:13;10.40;67.30
4578;DHT22;2301;47.354;8.528;2023-11-22T10:32:41;10.30;68.70
4578;DHT22;2301;47.354;8.528;2023-11-22T10:35:09;10.30;68.40
4578;DHT22;2301;47.354;8.528;2023-11-22T10:37:36;10.20;68.40
4578;DHT22;2301;47.354;8.528;2023-11-22T10:40:05;10.10;68.30
4578;DHT22;2301;47.354;8.528;2023-11-22T10:42:35;10.00;68.30
4578;DHT22;2301;47.354;8.528;2023-11-22T10:45:03;10.00;69.20
4578;DHT22;2301;47.354;8.528;2023-11-22T10:47:36;10.00;69.00
4578;DHT22;2301;47.354;8.528;2023-11-22T10:50:05;9.90;71.00
4578;DHT22;2301;47.354;8.528;2023-11-22T10:52:35;9.80;70.00
4578;DHT22;2301;47.354;8.528;2023-11-22T10:55:05;9.80;70.50
4578;DHT22;2301;47.354;8.528;2023-11-22T10:57:36;9.80;71.10
4578;DHT22;2301;47.354;8.528;2023-11-22T11:00:06;9.70;71.30
4578;DHT22;2301;47.354;8.528;2023-11-22T11:02:40;9.80;71.80
4578;DHT22;2301;47.354;8.528;2023-11-22T11:05:14;9.80;72.10
4578;DHT22;2301;47.354;8.528;2023-11-22T11:07:49;9.80;72.60
4578;DHT22;2301;47.354;8.528;2023-11-22T11:10:21;9.80;72.70
4578;DHT22;2301;47.354;8.528;2023-11-22T11:12:49;9.80;72.80
4578;DHT22;2301;47.354;8.528;2023-11-22T11:15:16;9.80;72.80
4578;DHT22;2301;47.354;8.528;2023-11-22T11:17:45;9.90;73.30
4578;DHT22;2301;47.354;8.528;2023-11-22T11:20:16;9.90;73.00
4578;DHT22;2301;47.354;8.528;2023-11-22T11:22:47;9.80;73.00
4578;DHT22;2301;47.354;8.528;2023-11-22T11:25:15;9.90;73.50
4578;DHT22;2301;47.354;8.528;2023-11-22T11:27:55;9.90;73.80
4578;DHT22;2301;47.354;8.528;2023-11-22T11:30:45;9.90;74.00
4578;DHT22;2301;47.354;8.528;2023-11-22T11:33:14;9.90;74.10
4578;DHT22;2301;47.354;8.528;2023-11-22T11:35:43;9.80;73.90
4578;DHT22;2301;47.354;8.528;2023-11-22T11:38:12;9.80;73.80
4578;DHT22;2301;47.354;8.528;2023-11-22T11:40:41;9.80;73.90
4578;DHT22;2301;47.354;8.528;2023-11-22T11:43:10;9.80;74.00
4578;DHT22;2301;47.354;8.528;2023-11-22T11:45:39;9.80;74.00
4578;DHT22;2301;47.354;8.528;2023-11-22T11:48:12;9.70;74.10
4578;DHT22;2301;47.354;8.528;2023-11-22T11:50:39;9.70;74.30
4578;DHT22;2301;47.354;8.528;2023-11-22T11:53:06;9.70;74.40
4578;DHT22;2301;47.354;8.528;2023-11-22T11:55:34;9.70;74.50
4578;DHT22;2301;47.354;8.528;2023-11-22T11:58:04;9.70;74.50
4578;DHT22;2301;47.354;8.528;2023-11-22T12:00:36;9.70;74.50
4578;DHT22;2301;47.354;8.528;2023-11-22T12:03:06;9.70;74.40
4578;DHT22;2301;47.354;8.528;2023-11-22T12:05:35;9.70;74.30
4578;DHT22;2301;47.354;8.528;2023-11-22T12:08:03;9.70;74.10
4578;DHT22;2301;47.354;8.528;2023-11-22T12:10:30;9.60;73.60
4578;DHT22;2301;47.354;8.528;2023-11-22T12:12:57;9.60;73.90
4578;DHT22;2301;47.354;8.528;2023-11-22T12:15:24;9.60;74.30
4578;DHT22;2301;47.354;8.528;2023-11-22T12:17:53;9.60;74.80
4578;DHT22;2301;47.354;8.528;2023-11-22T12:20:23;9.60;74.70
4578;DHT22;2301;47.354;8.528;2023-11-22T12:22:51;9.60;74.60
4578;DHT22;2301;47.354;8.528;2023-11-22T12:25:19;9.50;74.40
4578;DHT22;2301;47.354;8.528;2023-11-22T12:27:46;9.60;74.50
4578;DHT22;2301;47.354;8.528;2023-11-22T12:30:30;9.60;74.60
4578;DHT22;2301;47.354;8.528;2023-11-22T12:33:00;9.60;74.70
4578;DHT22;2301;47.354;8.528;2023-11-22T12:35:30;9.70;75.00
4578;DHT22;2301;47.354;8.528;2023-11-22T12:37:59;9.70;74.50
4578;DHT22;2301;47.354;8.528;2023-11-22T12:40:27;9.70;74.30
4578;DHT22;2301;47.354;8.528;2023-11-22T12:42:57;9.70;74.50
4578;DHT22;2301;47.354;8.528;2023-11-22T12:45:25;9.70;74.10
4578;DHT22;2301;47.354;8.528;2023-11-22T12:47:54;9.70;73.80
4578;DHT22;2301;47.354;8.528;2023-11-22T12:50:33;9.60;72.90
4578;DHT22;2301;47.354;8.528;2023-11-22T12:53:08;9.60;73.10
4578;DHT22;2301;47.354;8.528;2023-11-22T12:55:37;9.60;73.20
4578;DHT22;2301;47.354;8.528;2023-11-22T12:58:05;9.50;73.00
4578;DHT22;2301;47.354;8.528;2023-11-22T13:00:33;9.50;73.40
4578;DHT22;2301;47.354;8.528;2023-11-22T13:03:00;9.50;73.60
4578;DHT22;2301;47.354;8.528;2023-11-22T13:05:27;9.50;73.40
4578;DHT22;2301;47.354;8.528;2023-11-22T13:07:56;9.50;73.40
4578;DHT22;2301;47.354;8.528;2023-11-22T13:10:23;9.50;74.60
4578;DHT22;2301;47.354;8.528;2023-11-22T13:12:52;9.40;73.80
4578;DHT22;2301;47.354;8.528;2023-11-22T13:15:20;9.40;73.50
4578;DHT22;2301;47.354;8.528;2023-11-22T13:17:49;9.40;73.50
4578;DHT22;2301;47.354;8.528;2023-11-22T13:20:21;9.40;73.60
4578;DHT22;2301;47.354;8.528;2023-11-22T13:22:48;9.40;73.70
4578;DHT22;2301;47.354;8.528;2023-11-22T13:25:17;9.40;73.50
4578;DHT22;2301;47.354;8.528;2023-11-22T13:27:46;9.40;73.80
4578;DHT22;2301;47.354;8.528;2023-11-22T13:30:13;9.40;73.80
4578;DHT22;2301;47.354;8.528;2023-11-22T13:32:41;9.40;73.90
4578;DHT22;2301;47.354;8.528;2023-11-22T13:35:09;9.30;73.40
4578;DHT22;2301;47.354;8.528;2023-11-22T13:37:41;9.30;73.60
4578;DHT22;2301;47.354;8.528;2023-11-22T13:40:10;9.30;73.40
4578;DHT22;2301;47.354;8.528;2023-11-22T13:42:45;9.30;73.60
4578;DHT22;2301;47.354;8.528;2023-11-22T13:45:14;9.30;73.70
4578;DHT22;2301;47.354;8.528;2023-11-22T13:47:43;9.30;73.60
4578;DHT22;2301;47.354;8.528;2023-11-22T13:50:13;9.30;73.60
4578;DHT22;2301;47.354;8.528;2023-11-22T13:52:41;9.30;73.70
4578;DHT22;2301;47.354;8.528;2023-11-22T13:55:08;9.30;73.80
4578;DHT22;2301;47.354;8.528;2023-11-22T13:57:38;9.20;73.70
4578;DHT22;2301;47.354;8.528;2023-11-22T14:00:09;9.20;73.80
4578;DHT22;2301;47.354;8.528;2023-11-22T14:02:38;9.20;74.10
4578;DHT22;2301;47.354;8.528;2023-11-22T14:05:07;9.20;74.20
4578;DHT22;2301;47.354;8.528;2023-11-22T14:07:35;9.20;74.00
4578;DHT22;2301;47.354;8.528;2023-11-22T14:10:03;9.10;73.80
4578;DHT22;2301;47.354;8.528;2023-11-22T14:12:31;9.10;73.70
4578;DHT22;2301;47.354;8.528;2023-11-22T14:14:59;9.10;73.50
4578;DHT22;2301;47.354;8.528;2023-11-22T14:17:28;9.10;73.20
4578;DHT22;2301;47.354;8.528;2023-11-22T14:19:55;9.10;73.30
4578;DHT22;2301;47.354;8.528;2023-11-22T14:22:22;9.00;73.60
4578;DHT22;2301;47.354;8.528;2023-11-22T14:24:50;8.90;73.60
4578;DHT22;2301;47.354;8.528;2023-11-22T14:27:17;8.90;74.10
4578;DHT22;2301;47.354;8.528;2023-11-22T14:29:45;8.90;74.00
4578;DHT22;2301;47.354;8.528;2023-11-22T14:32:14;8.90;74.20
4578;DHT22;2301;47.354;8.528;2023-11-22T14:34:43;8.90;74.20
4578;DHT22;2301;47.354;8.528;2023-11-22T14:37:10;8.80;74.30
4578;DHT22;2301;47.354;8.528;2023-11-22T14:39:38;8.80;74.00
4578;DHT22;2301;47.354;8.528;2023-11-22T14:42:05;8.80;73.90
4578;DHT22;2301;47.354;8.528;2023-11-22T14:44:33;8.80;74.00
4578;DHT22;2301;47.354;8.528;2023-11-22T14:47:01;8.80;74.00
4578;DHT22;2301;47.354;8.528;2023-11-22T14:49:32;8.70;73.20
4578;DHT22;2301;47.354;8.528;2023-11-22T14:52:00;8.70;73.60
4578;DHT22;2301;47.354;8.528;2023-11-22T14:54:29;8.60;73.60
4578;DHT22;2301;47.354;8.528;2023-11-22T14:56:56;8.60;73.60
4578;DHT22;2301;47.354;8.528;2023-11-22T14:59:27;8.60;73.60
4578;DHT22;2301;47.354;8.528;2023-11-22T15:01:56;8.60;73.30
4578;DHT22;2301;47.354;8.528;2023-11-22T15:04:23;8.50;72.90
4578;DHT22;2301;47.354;8.528;2023-11-22T15:06:51;8.50;73.00
4578;DHT22;2301;47.354;8.528;2023-11-22T15:09:19;8.50;72.80
4578;DHT22;2301;47.354;8.528;2023-11-22T15:11:47;8.40;72.60
4578;DHT22;2301;47.354;8.528;2023-11-22T15:14:14;8.40;72.90
4578;DHT22;2301;47.354;8.528;2023-11-22T15:16:42;8.40;73.40
4578;DHT22;2301;47.354;8.528;2023-11-22T15:19:09;8.40;73.80
4578;DHT22;2301;47.354;8.528;2023-11-22T15:21:36;8.40;73.60
4578;DHT22;2301;47.354;8.528;2023-11-22T15:24:04;8.40;73.40
4578;DHT22;2301;47.354;8.528;2023-11-22T15:26:32;8.40;73.40
4578;DHT22;2301;47.354;8.528;2023-11-22T15:29:00;8.40;73.50
4578;DHT22;2301;47.354;8.528;2023-11-22T15:31:27;8.30;73.30
4578;DHT22;2301;47.354;8.528;2023-11-22T15:33:55;8.30;73.20
4578;DHT22;2301;47.354;8.528;2023-11-22T15:36:21;8.30;73.30
4578;DHT22;2301;47.354;8.528;2023-11-22T15:38:48;8.30;73.10
4578;DHT22;2301;47.354;8.528;2023-11-22T15:41:15;8.30;72.80
4578;DHT22;2301;47.354;8.528;2023-11-22T15:43:44;8.30;73.10
4578;DHT22;2301;47.354;8.528;2023-11-22T15:46:12;8.30;73.10
4578;DHT22;2301;47.354;8.528;2023-11-22T15:48:42;8.30;73.10
4578;DHT22;2301;47.354;8.528;2023-11-22T15:51:10;8.30;72.80
4578;DHT22;2301;47.354;8.528;2023-11-22T15:53:38;8.20;73.40
4578;DHT22;2301;47.354;8.528;2023-11-22T15:56:05;8.30;73.20
4578;DHT22;2301;47.354;8.528;2023-11-22T15:58:34;8.30;73.50
4578;DHT22;2301;47.354;8.528;2023-11-22T16:01:04;8.30;73.50
4578;DHT22;2301;47.354;8.528;2023-11-22T16:03:32;8.30;73.40
4578;DHT22;2301;47.354;8.528;2023-11-22T16:06:00;8.20;73.30
4578;DHT22;2301;47.354;8.528;2023-11-22T16:08:28;8.20;73.10
4578;DHT22;2301;47.354;8.528;2023-11-22T16:10:55;8.30;73.40
4578;DHT22;2301;47.354;8.528;2023-11-22T16:13:23;8.30;73.60